createdAt,value
2019-03-13T00:00:07.272Z,35.00
2019-03-13T00:02:55.028Z,34.90
2019-03-13T00:05:41.269Z,34.90
2019-03-13T00:08:27.830Z,34.90
2019-03-13T00:11:14.135Z,34.90
2019-03-13T00:14:01.537Z,34.90
2019-03-13T00:16:47.899Z,34.90
2019-03-13T00:19:34.767Z,34.90
2019-03-13T00:22:21.113Z,34.90
2019-03-13T00:25:07.775Z,34.90
2019-03-13T00:27:54.046Z,35.00
2019-03-13T00:30:40.371Z,34.90
2019-03-13T00:33:26.967Z,35.00
2019-03-13T00:36:13.488Z,35.00
2019-03-13T00:38:59.237Z,35.00
2019-03-13T00:41:46.515Z,34.90
2019-03-13T00:44:32.470Z,34.90
2019-03-13T00:47:18.898Z,34.90
2019-03-13T00:50:05.525Z,34.90
2019-03-13T00:52:51.765Z,34.90
2019-03-13T00:55:38.195Z,34.90
2019-03-13T00:58:25.463Z,34.90
2019-03-13T01:01:37.047Z,34.90
2019-03-13T01:04:45.288Z,35.00
2019-03-13T01:07:31.231Z,34.90
2019-03-13T01:10:17.578Z,34.90
2019-03-13T01:13:03.781Z,35.00
2019-03-13T01:15:50.079Z,35.00
2019-03-13T01:18:36.355Z,35.00
2019-03-13T01:21:23.345Z,35.00
2019-03-13T01:24:09.595Z,35.00
2019-03-13T01:26:55.820Z,35.00
2019-03-13T01:29:42.126Z,35.00
2019-03-13T01:32:37.673Z,35.00
2019-03-13T01:35:40.551Z,35.00
2019-03-13T01:38:26.952Z,35.60
2019-03-13T01:41:13.375Z,35.00
2019-03-13T01:44:01.136Z,35.00
2019-03-13T01:46:47.345Z,35.00
2019-03-13T01:49:33.722Z,35.10
2019-03-13T01:52:20.180Z,35.10
2019-03-13T01:55:06.903Z,35.10
2019-03-13T01:57:53.250Z,35.10
2019-03-13T02:00:39.679Z,35.10
2019-03-13T02:03:25.899Z,35.20
2019-03-13T02:06:12.640Z,35.10
2019-03-13T02:08:58.896Z,35.10
2019-03-13T02:11:45.388Z,35.10
2019-03-13T02:14:31.980Z,35.00
2019-03-13T02:17:18.327Z,35.00
2019-03-13T02:20:07.303Z,35.00
2019-03-13T02:22:53.568Z,34.90
2019-03-13T02:25:41.563Z,34.90
2019-03-13T02:28:30.086Z,34.90
2019-03-13T02:31:18.284Z,34.90
2019-03-13T02:34:06.573Z,34.90
2019-03-13T02:36:54.537Z,34.90
2019-03-13T02:39:42.479Z,34.90
2019-03-13T02:42:30.591Z,34.80
2019-03-13T02:45:19.126Z,34.80
2019-03-13T02:48:05.424Z,34.30
2019-03-13T02:50:53.372Z,34.80
2019-03-13T02:53:39.649Z,34.80
2019-03-13T02:56:27.662Z,34.80
2019-03-13T02:59:15.561Z,34.80
2019-03-13T03:02:23.856Z,34.80
2019-03-13T03:05:10.472Z,34.80
2019-03-13T03:07:58.804Z,34.80
2019-03-13T03:10:46.727Z,34.90
2019-03-13T03:13:34.808Z,34.90
2019-03-13T03:16:23.003Z,34.80
2019-03-13T03:19:11.357Z,34.90
2019-03-13T03:21:59.212Z,34.80
2019-03-13T03:24:47.304Z,34.80
2019-03-13T03:27:35.904Z,34.80
2019-03-13T03:30:24.078Z,34.80
2019-03-13T03:33:10.337Z,34.90
2019-03-13T03:35:58.842Z,34.90
2019-03-13T03:38:47.148Z,34.80
2019-03-13T03:41:34.283Z,34.80
2019-03-13T03:44:22.146Z,34.90
2019-03-13T03:47:08.859Z,34.80
2019-03-13T03:49:57.179Z,34.90
2019-03-13T03:52:45.865Z,34.90
2019-03-13T03:55:33.974Z,34.90
2019-03-13T03:58:22.867Z,34.90
2019-03-13T04:01:11.071Z,34.90
2019-03-13T04:03:59.252Z,34.90
2019-03-13T04:06:45.895Z,34.90
2019-03-13T04:09:34.424Z,34.90
2019-03-13T04:12:22.726Z,34.90
2019-03-13T04:15:09.581Z,34.90
2019-03-13T04:17:57.776Z,34.90
2019-03-13T04:20:46.421Z,34.90
2019-03-13T04:23:34.296Z,34.90
2019-03-13T04:26:22.077Z,34.90
2019-03-13T04:29:10.174Z,35.00
2019-03-13T04:31:58.311Z,35.00
2019-03-13T04:34:46.461Z,34.90
2019-03-13T04:37:34.876Z,34.90
2019-03-13T04:40:22.692Z,34.90
2019-03-13T04:43:11.930Z,34.90
2019-03-13T04:45:58.513Z,34.90
2019-03-13T04:48:47.596Z,34.90
2019-03-13T04:51:35.597Z,34.90
2019-03-13T04:54:23.665Z,34.90
2019-03-13T04:57:11.472Z,34.80
2019-03-13T05:00:00.777Z,34.90
2019-03-13T05:02:48.506Z,34.80
2019-03-13T05:05:41.315Z,34.90
2019-03-13T05:09:00.775Z,34.90
2019-03-13T05:11:49.167Z,34.90
2019-03-13T05:14:35.435Z,34.90
2019-03-13T05:17:23.960Z,34.90
2019-03-13T05:20:13.832Z,34.90
2019-03-13T05:23:01.648Z,34.90
2019-03-13T05:25:49.957Z,34.90
2019-03-13T05:28:36.296Z,34.90
2019-03-13T05:31:24.583Z,34.90
2019-03-13T05:34:12.523Z,34.90
2019-03-13T05:37:00.740Z,34.80
2019-03-13T05:39:49.204Z,34.90
2019-03-13T05:42:37.132Z,34.90
2019-03-13T05:45:25.174Z,34.90
2019-03-13T05:48:11.330Z,34.90
2019-03-13T05:50:59.155Z,34.80
2019-03-13T05:53:47.293Z,34.80
2019-03-13T05:56:33.533Z,34.80
2019-03-13T05:59:21.841Z,35.10
2019-03-13T06:02:10.767Z,34.80
2019-03-13T06:04:58.685Z,34.70
2019-03-13T06:07:47.136Z,34.70
2019-03-13T06:10:34.416Z,34.70
2019-03-13T06:13:23.243Z,34.60
2019-03-13T06:16:11.073Z,34.50
2019-03-13T06:18:59.631Z,34.40
2019-03-13T06:21:45.964Z,34.40
2019-03-13T06:24:32.628Z,34.40
2019-03-13T06:27:21.107Z,34.50
2019-03-13T06:30:09.320Z,34.40
2019-03-13T06:32:55.668Z,34.30
2019-03-13T06:35:42.044Z,34.20
2019-03-13T06:38:29.967Z,34.50
2019-03-13T06:41:18.427Z,33.80
2019-03-13T06:44:04.779Z,33.70
2019-03-13T06:46:52.900Z,33.70
2019-03-13T06:49:41.212Z,33.80
2019-03-13T06:52:27.707Z,33.80
2019-03-13T06:55:15.656Z,33.90
2019-03-13T06:58:03.619Z,33.90
2019-03-13T07:01:16.437Z,34.00
2019-03-13T07:04:24.344Z,34.10
2019-03-13T07:07:47.077Z,34.20
2019-03-13T07:10:54.803Z,34.20
2019-03-13T07:13:48.091Z,34.30
2019-03-13T07:16:59.172Z,34.40
2019-03-13T07:19:58.727Z,34.40
2019-03-13T07:22:58.284Z,34.50
2019-03-13T07:26:06.363Z,34.60
2019-03-13T07:29:12.928Z,34.60
2019-03-13T07:32:09.622Z,34.70
2019-03-13T07:35:16.141Z,34.70
2019-03-13T07:38:18.987Z,34.70
2019-03-13T07:41:36.619Z,34.70
2019-03-13T07:44:42.819Z,34.80
2019-03-13T07:47:41.467Z,34.80
2019-03-13T07:50:47.739Z,34.80
2019-03-13T07:53:53.455Z,34.70
2019-03-13T07:56:49.220Z,34.50
2019-03-13T07:59:55.029Z,34.30
2019-03-13T08:03:01.548Z,34.10
2019-03-13T08:06:16.800Z,34.00
2019-03-13T08:09:25.818Z,33.90
2019-03-13T08:12:31.720Z,33.90
2019-03-13T08:15:37.317Z,33.90
2019-03-13T08:19:01.452Z,34.10
2019-03-13T08:22:07.258Z,34.10
2019-03-13T08:25:16.052Z,34.20
2019-03-13T08:28:35.879Z,34.30
2019-03-13T08:31:43.557Z,34.40
2019-03-13T08:34:51.891Z,34.40
2019-03-13T08:37:48.685Z,34.50
2019-03-13T08:40:41.956Z,34.50
2019-03-13T08:43:47.820Z,34.50
2019-03-13T08:46:45.687Z,34.50
2019-03-13T08:49:49.863Z,34.50
2019-03-13T08:53:09.228Z,34.60
2019-03-13T08:56:06.348Z,34.60
2019-03-13T08:59:25.693Z,34.60
2019-03-13T09:02:31.276Z,34.50
2019-03-13T09:05:35.908Z,34.50
2019-03-13T09:08:36.208Z,34.50
2019-03-13T09:11:45.247Z,34.40
2019-03-13T09:14:35.941Z,34.50
2019-03-13T09:17:39.680Z,34.40
2019-03-13T09:20:47.335Z,34.40
2019-03-13T09:23:53.230Z,34.40
2019-03-13T09:27:06.529Z,34.30
2019-03-13T09:30:02.408Z,34.20
2019-03-13T09:33:09.243Z,34.20
2019-03-13T09:36:23.326Z,34.20
2019-03-13T09:39:21.911Z,34.20
2019-03-13T09:42:19.802Z,34.20
2019-03-13T09:45:14.763Z,34.10
2019-03-13T09:48:39.901Z,34.10
2019-03-13T09:51:45.352Z,34.10
2019-03-13T09:54:44.120Z,34.20
2019-03-13T09:58:02.534Z,34.20
2019-03-13T10:01:09.980Z,34.20
2019-03-13T10:04:14.565Z,34.20
2019-03-13T10:07:22.396Z,34.20
2019-03-13T10:10:21.110Z,34.30
2019-03-13T10:13:19.484Z,34.20
2019-03-13T10:16:11.938Z,34.20
2019-03-13T10:19:22.179Z,34.10
2019-03-13T10:22:23.951Z,34.00
2019-03-13T10:25:29.820Z,34.00
2019-03-13T10:28:35.600Z,34.00
2019-03-13T10:31:40.011Z,34.00
2019-03-13T10:34:33.574Z,34.00
2019-03-13T10:37:46.763Z,34.00
2019-03-13T10:40:54.831Z,34.10
2019-03-13T10:43:49.599Z,34.80
2019-03-13T10:46:59.825Z,34.10
2019-03-13T10:49:54.268Z,34.20
2019-03-13T10:53:17.219Z,34.20
2019-03-13T10:56:21.231Z,34.20
2019-03-13T10:59:20.551Z,34.20
2019-03-13T11:02:24.775Z,34.20
2019-03-13T11:05:34.081Z,34.10
2019-03-13T11:08:31.373Z,34.10
2019-03-13T11:11:33.115Z,34.10
2019-03-13T11:14:35.316Z,34.00
2019-03-13T11:17:36.745Z,34.10
2019-03-13T11:20:43.011Z,34.10
2019-03-13T11:23:56.583Z,34.10
2019-03-13T11:26:53.203Z,34.10
2019-03-13T11:29:56.326Z,34.20
2019-03-13T11:33:05.149Z,34.20
2019-03-13T11:36:05.268Z,34.30
2019-03-13T11:39:12.795Z,34.40
2019-03-13T11:42:20.536Z,34.40
2019-03-13T11:45:30.546Z,34.50
2019-03-13T11:48:46.635Z,34.50
2019-03-13T11:51:52.713Z,34.60
2019-03-13T11:55:00.382Z,34.60
2019-03-13T11:58:02.847Z,34.60
2019-03-13T12:01:17.272Z,34.70
2019-03-13T12:04:21.662Z,34.70
2019-03-13T12:07:39.079Z,34.80
2019-03-13T12:10:40.005Z,34.80
2019-03-13T12:13:51.807Z,34.70
2019-03-13T12:16:57.921Z,34.70
2019-03-13T12:20:06.811Z,34.60
2019-03-13T12:23:04.483Z,34.50
2019-03-13T12:26:18.335Z,34.40
2019-03-13T12:29:14.635Z,34.30
2019-03-13T12:32:20.280Z,34.10
2019-03-13T12:35:28.086Z,34.00
2019-03-13T12:38:26.527Z,33.90
2019-03-13T12:41:37.327Z,33.90
2019-03-13T12:44:40.588Z,33.90
2019-03-13T12:47:42.660Z,34.00
2019-03-13T12:50:52.876Z,34.50
2019-03-13T12:54:15.747Z,33.90
2019-03-13T12:57:31.595Z,34.00
2019-03-13T13:00:36.615Z,34.00
2019-03-13T13:03:37.881Z,34.10
2019-03-13T13:06:38.164Z,34.10
2019-03-13T13:09:42.515Z,34.20
2019-03-13T13:12:39.540Z,34.10
2019-03-13T13:15:50.956Z,34.20
2019-03-13T13:18:51.406Z,34.20
2019-03-13T13:21:37.323Z,34.10
2019-03-13T13:24:23.600Z,34.10
2019-03-13T13:27:11.526Z,34.20
2019-03-13T13:29:58.310Z,34.40
2019-03-13T13:32:44.929Z,34.30
2019-03-13T13:35:31.306Z,34.30
2019-03-13T13:38:17.791Z,34.30
2019-03-13T13:41:04.928Z,34.40
2019-03-13T13:43:50.917Z,34.40
2019-03-13T13:46:38.915Z,34.40
2019-03-13T13:49:25.210Z,34.40
2019-03-13T13:52:11.523Z,34.30
2019-03-13T13:54:57.928Z,34.30
2019-03-13T13:57:44.582Z,34.30
2019-03-13T14:00:30.827Z,34.30
2019-03-13T14:03:17.283Z,34.30
2019-03-13T14:06:03.528Z,34.30
2019-03-13T14:08:49.383Z,34.40
2019-03-13T14:11:35.868Z,34.40
2019-03-13T14:14:22.695Z,34.40
2019-03-13T14:17:09.027Z,34.50
2019-03-13T14:19:55.701Z,34.50
2019-03-13T14:22:43.683Z,34.50
2019-03-13T14:25:30.060Z,34.60
2019-03-13T14:28:16.531Z,34.60
2019-03-13T14:31:03.866Z,34.70
2019-03-13T14:33:50.708Z,34.70
2019-03-13T14:36:37.604Z,34.70
2019-03-13T14:39:23.787Z,34.80
2019-03-13T14:42:10.205Z,34.70
2019-03-13T14:44:56.653Z,34.70
2019-03-13T14:47:43.186Z,34.80
2019-03-13T14:50:29.687Z,34.80
2019-03-13T14:53:16.215Z,34.80
2019-03-13T14:56:02.415Z,35.00
2019-03-13T14:58:48.763Z,35.00
2019-03-13T15:01:35.025Z,35.10
2019-03-13T15:04:21.263Z,35.10
2019-03-13T15:07:07.672Z,35.10
2019-03-13T15:09:53.999Z,35.20
2019-03-13T15:12:42.947Z,35.10
2019-03-13T15:15:28.328Z,35.20
2019-03-13T15:18:14.744Z,35.30
2019-03-13T15:21:01.012Z,35.30
2019-03-13T15:23:47.321Z,35.30
2019-03-13T15:26:34.907Z,35.30
2019-03-13T15:29:21.167Z,35.40
2019-03-13T15:32:07.396Z,35.40
2019-03-13T15:34:53.668Z,35.40
2019-03-13T15:37:40.918Z,35.40
2019-03-13T15:40:27.195Z,35.40
2019-03-13T15:43:13.387Z,35.40
2019-03-13T15:45:59.668Z,35.40
2019-03-13T15:48:45.680Z,35.40
2019-03-13T15:51:31.703Z,35.40
2019-03-13T15:54:17.775Z,35.50
2019-03-13T15:57:04.447Z,35.50
2019-03-13T15:59:50.501Z,35.50
2019-03-13T16:02:36.880Z,35.50
2019-03-13T16:05:23.295Z,35.50
2019-03-13T16:08:09.532Z,35.50
2019-03-13T16:10:55.592Z,35.60
2019-03-13T16:13:41.894Z,35.50
2019-03-13T16:16:28.270Z,35.60
2019-03-13T16:19:14.739Z,35.60
2019-03-13T16:22:01.728Z,35.60
2019-03-13T16:24:49.072Z,35.60
2019-03-13T16:27:35.856Z,35.60
2019-03-13T16:30:23.485Z,35.60
2019-03-13T16:33:09.751Z,35.60
2019-03-13T16:35:56.263Z,35.60
2019-03-13T16:38:42.800Z,35.60
2019-03-13T16:41:28.553Z,35.60
2019-03-13T16:44:15.187Z,35.60
2019-03-13T16:47:01.365Z,35.70
2019-03-13T16:49:47.896Z,35.70
2019-03-13T16:52:34.286Z,35.60
2019-03-13T16:55:20.684Z,35.60
2019-03-13T16:58:07.071Z,35.70
2019-03-13T17:00:52.899Z,35.60
2019-03-13T17:03:39.296Z,35.60
2019-03-13T17:06:25.692Z,35.70
2019-03-13T17:09:12.205Z,35.70
2019-03-13T17:12:00.235Z,35.70
2019-03-13T17:14:46.477Z,35.80
2019-03-13T17:17:33.559Z,35.70
2019-03-13T17:20:21.925Z,35.80
2019-03-13T17:23:08.088Z,35.80
2019-03-13T17:25:54.415Z,35.80
2019-03-13T17:28:40.659Z,35.80
2019-03-13T17:31:26.849Z,35.80
2019-03-13T17:34:13.336Z,35.80
2019-03-13T17:36:59.418Z,35.80
2019-03-13T17:39:45.569Z,35.80
2019-03-13T17:42:32.041Z,35.80
2019-03-13T17:45:19.375Z,35.80
2019-03-13T17:48:06.708Z,36.60
2019-03-13T17:50:52.875Z,35.80
2019-03-13T17:53:39.136Z,35.80
2019-03-13T17:56:25.631Z,35.80
2019-03-13T17:59:12.012Z,35.90
2019-03-13T18:01:58.894Z,35.90
2019-03-13T18:04:46.168Z,35.90
2019-03-13T18:07:32.644Z,35.90
2019-03-13T18:10:19.031Z,35.90
2019-03-13T18:13:05.275Z,35.90
2019-03-13T18:15:51.678Z,35.90
2019-03-13T18:18:37.931Z,35.90
2019-03-13T18:21:24.264Z,35.90
2019-03-13T18:24:10.912Z,36.00
2019-03-13T18:26:57.168Z,36.00
2019-03-13T18:29:43.096Z,36.00
2019-03-13T18:32:41.095Z,36.00
2019-03-13T18:35:17.931Z,36.00
2019-03-13T18:38:04.183Z,36.10
2019-03-13T18:40:50.472Z,36.10
2019-03-13T18:43:36.912Z,36.00
2019-03-13T18:46:23.527Z,36.00
2019-03-13T18:49:09.217Z,36.00
2019-03-13T18:51:55.612Z,36.10
2019-03-13T18:54:42.019Z,36.00
2019-03-13T18:57:28.320Z,36.10
2019-03-13T19:00:22.876Z,36.10
2019-03-13T19:03:09.183Z,36.10
2019-03-13T19:05:55.437Z,36.10
2019-03-13T19:08:42.364Z,36.10
2019-03-13T19:11:28.720Z,36.10
2019-03-13T19:14:15.063Z,36.10
2019-03-13T19:17:02.572Z,36.10
2019-03-13T19:19:49.055Z,36.20
2019-03-13T19:22:34.811Z,36.10
2019-03-13T19:25:20.779Z,36.10
2019-03-13T19:28:07.062Z,36.10
2019-03-13T19:30:53.538Z,36.10
2019-03-13T19:33:39.727Z,36.10
2019-03-13T19:36:26.084Z,36.20
2019-03-13T19:39:12.620Z,36.10
2019-03-13T19:41:59.000Z,36.10
2019-03-13T19:44:45.347Z,36.10
2019-03-13T19:47:31.896Z,36.10
2019-03-13T19:50:18.197Z,36.10
2019-03-13T19:53:04.924Z,36.10
2019-03-13T19:55:51.444Z,36.10
2019-03-13T19:58:37.914Z,36.10
2019-03-13T20:01:24.336Z,36.10
2019-03-13T20:04:10.745Z,36.10
2019-03-13T20:06:57.948Z,36.10
2019-03-13T20:09:43.916Z,36.10
2019-03-13T20:12:30.368Z,36.10
2019-03-13T20:15:18.266Z,36.10
2019-03-13T20:18:04.884Z,36.10
2019-03-13T20:20:51.316Z,36.10
2019-03-13T20:23:38.073Z,36.10
2019-03-13T20:26:24.356Z,36.00
2019-03-13T20:29:10.688Z,36.10
2019-03-13T20:31:57.207Z,36.10
2019-03-13T20:34:43.352Z,36.10
2019-03-13T20:37:29.911Z,36.10
2019-03-13T20:40:18.107Z,36.10
2019-03-13T20:43:04.141Z,36.10
2019-03-13T20:45:51.603Z,36.10
2019-03-13T20:48:37.839Z,36.10
2019-03-13T20:51:23.756Z,36.10
2019-03-13T20:54:11.186Z,36.10
2019-03-13T20:56:57.522Z,36.10
2019-03-13T20:59:43.788Z,36.10
2019-03-13T21:02:29.713Z,36.20
2019-03-13T21:05:16.495Z,36.60
2019-03-13T21:08:03.050Z,36.10
2019-03-13T21:10:49.495Z,36.20
2019-03-13T21:13:35.764Z,36.20
2019-03-13T21:16:21.850Z,36.20
2019-03-13T21:19:08.123Z,36.10
2019-03-13T21:21:54.911Z,36.60
2019-03-13T21:24:41.236Z,36.20
2019-03-13T21:27:27.591Z,36.20
2019-03-13T21:30:19.677Z,36.10
2019-03-13T21:33:05.919Z,36.20
2019-03-13T21:35:52.279Z,36.10
2019-03-13T21:38:38.860Z,36.10
2019-03-13T21:41:26.181Z,36.10
2019-03-13T21:44:12.809Z,36.10
2019-03-13T21:46:59.043Z,36.10
2019-03-13T21:49:45.588Z,36.10
2019-03-13T21:52:32.200Z,36.10
2019-03-13T21:55:18.949Z,36.10
2019-03-13T21:58:05.211Z,36.10
2019-03-13T22:00:51.633Z,36.10
2019-03-13T22:03:37.979Z,36.10
2019-03-13T22:06:29.084Z,36.10
2019-03-13T22:09:12.103Z,36.10
2019-03-13T22:11:59.382Z,36.10
2019-03-13T22:14:45.768Z,36.20
2019-03-13T22:17:32.414Z,36.10
2019-03-13T22:20:19.158Z,36.10
2019-03-13T22:23:05.448Z,36.10
2019-03-13T22:25:51.398Z,35.70
2019-03-13T22:28:37.708Z,36.20
2019-03-13T22:31:24.044Z,36.20
2019-03-13T22:34:10.547Z,36.20
2019-03-13T22:36:56.819Z,36.20
2019-03-13T22:39:42.736Z,36.10
2019-03-13T22:42:30.815Z,36.20
2019-03-13T22:45:17.417Z,36.20
2019-03-13T22:48:03.347Z,36.20
2019-03-13T22:50:50.044Z,36.20
2019-03-13T22:53:36.138Z,36.20
2019-03-13T22:56:22.020Z,36.20
2019-03-13T22:59:08.253Z,36.50
2019-03-13T23:01:54.962Z,36.20
2019-03-13T23:04:41.575Z,36.20
2019-03-13T23:07:29.167Z,36.20
2019-03-13T23:10:30.397Z,36.30
2019-03-13T23:13:17.437Z,36.20
2019-03-13T23:16:04.576Z,36.30
2019-03-13T23:18:50.955Z,36.30
2019-03-13T23:21:37.164Z,36.30
2019-03-13T23:24:23.255Z,36.30
2019-03-13T23:27:09.575Z,36.30
2019-03-13T23:29:56.059Z,36.30
2019-03-13T23:32:42.271Z,36.30
2019-03-13T23:35:28.967Z,36.30
2019-03-13T23:38:15.469Z,36.30
2019-03-13T23:41:02.168Z,36.30
2019-03-13T23:43:48.478Z,36.40
2019-03-13T23:46:35.584Z,36.30
2019-03-13T23:49:21.533Z,36.30
2019-03-13T23:52:07.820Z,36.30
2019-03-13T23:54:54.238Z,36.30
2019-03-13T23:57:41.016Z,36.70
